KAOH/AOH METAR and TAF weather

Enter ICAO airport designator
Station Type Date Time Source
KAOH METAR 2020/12/05 05:53 UTC NOAA

KAOH 050553Z AUTO 31005KT 10SM CLR 00/M03 A2995 RMK AO2 SLP149 T00001028 10056 20000 51008


Station Type Date Time Source
KAOH Decoded METAR 2020/12/05 05:53 UTC NOAA

LIMA ALLEN COUNTY AIRPORT, OH, United States (KAOH) 40-42N 84-01W 296M
Dec 05, 2020 - 12:53 AM EST / 2020.12.05 0553 UTC
Wind: from the NW (310 degrees) at 6 MPH (5 KT):0
Visibility: 10 mile(s):0
Sky conditions: clear
Temperature: 32.0 F (0.0 C)
Windchill: 26 F (-3 C):1
Dew Point: 27.0 F (-2.8 C)
Relative Humidity: 81%
Pressure (altimeter): 29.95 in. Hg (1014 hPa)
Pressure tendency: 0.02 inches (0.8 hPa) higher than three hours ago
ob: KAOH 050553Z AUTO 31005KT 10SM CLR 00/M03 A2995 RMK AO2 SLP149 T00001028 10056 20000 51008
cycle: 6

Station Type Date Time Source
KAOH TAF UTC NOAA

Error!

Example: see airport list